Time;durP1;ratioP1;P1;durP2;ratioP2;P2;SDS_P1;SDS_P2;PMS_P1;PMS_P2;Temp;Humidity;BMP_temperature;BMP_pressure;BME280_temperature;BME280_humidity;BME280_pressure;Samples;Min_cycle;Max_cycle;Signal;HPM_P1;HPM_P2
2022/03/21 00:01:11;;;;;;;53.43;27.57;;;;;;;5.36;36.33;96349.19;5093278;28;20200;-79
2022/03/21 00:03:38;;;;;;;47.00;26.43;;;;;;;5.32;36.42;96342.59;5092652;28;20270;-80
2022/03/21 00:06:05;;;;;;;53.10;26.40;;;;;;;5.32;36.58;96336.69;5092676;28;20221;-80
2022/03/21 00:08:32;;;;;;;53.97;27.77;;;;;;;5.30;36.72;96339.28;5091956;28;20267;-81
2022/03/21 00:11:01;;;;;;;51.20;27.20;;;;;;;5.26;36.85;96336.03;5092885;28;20185;-79
2022/03/21 00:13:28;;;;;;;53.13;27.37;;;;;;;5.25;36.67;96336.94;5092071;28;20189;-81
2022/03/21 00:15:55;;;;;;;53.30;27.97;;;;;;;5.24;36.89;96342.06;5092572;28;20272;-79
2022/03/21 00:18:23;;;;;;;55.63;27.93;;;;;;;5.23;36.87;96338.72;5092034;28;20700;-78
2022/03/21 00:20:52;;;;;;;58.40;29.50;;;;;;;5.21;36.96;96335.41;5090501;28;20204;-79
2022/03/21 00:23:19;;;;;;;51.53;27.60;;;;;;;5.17;37.07;96331.34;5091839;28;20256;-78
2022/03/21 00:25:46;;;;;;;54.33;28.37;;;;;;;5.09;37.18;96319.88;5092384;28;20201;-78
2022/03/21 00:28:15;;;;;;;51.27;28.47;;;;;;;5.17;37.13;96338.13;5092568;28;20260;-79
2022/03/21 00:30:43;;;;;;;54.57;28.27;;;;;;;5.15;37.27;96332.31;5100042;28;20308;-80
2022/03/21 00:33:11;;;;;;;57.93;28.73;;;;;;;5.12;37.10;96330.72;5092940;28;20204;-79
2022/03/21 00:35:38;;;;;;;53.63;26.67;;;;;;;5.12;37.29;96332.44;5092119;28;20201;-78
2022/03/21 00:38:07;;;;;;;55.00;29.17;;;;;;;5.11;37.20;96326.53;5091728;28;20197;-80
2022/03/21 00:40:34;;;;;;;46.40;27.10;;;;;;;5.08;37.29;96331.75;5092109;28;20547;-77
2022/03/21 00:43:01;;;;;;;55.03;28.37;;;;;;;5.03;37.46;96318.44;5092351;28;20182;-78
2022/03/21 00:45:29;;;;;;;54.70;28.27;;;;;;;5.03;37.63;96315.91;5091356;28;20273;-78
2022/03/21 00:47:56;;;;;;;44.40;26.97;;;;;;;4.94;37.72;96303.59;5091501;28;20186;-80
2022/03/21 00:50:25;;;;;;;51.43;27.53;;;;;;;5.01;37.66;96315.97;5091497;28;20225;-77
2022/03/21 00:52:54;;;;;;;55.27;27.90;;;;;;;4.95;37.72;96298.47;5091852;28;20186;-80
2022/03/21 00:55:22;;;;;;;45.47;25.37;;;;;;;4.97;37.65;96311.91;5091235;28;20221;-78
2022/03/21 00:57:49;;;;;;;43.33;24.17;;;;;;;4.94;37.65;96304.44;5091646;28;20185;-78
2022/03/21 01:00:19;;;;;;;43.00;24.20;;;;;;;4.67;37.93;96255.72;5091027;28;20216;-80
2022/03/21 01:02:48;;;;;;;41.67;23.07;;;;;;;4.94;38.04;96311.22;5090608;28;20621;-80
2022/03/21 01:05:15;;;;;;;41.10;23.10;;;;;;;4.87;37.78;96292.06;5091497;28;20186;-79
2022/03/21 01:07:43;;;;;;;40.23;21.40;;;;;;;4.96;37.77;96304.34;5091042;28;20197;-77
2022/03/21 01:10:13;;;;;;;39.43;20.63;;;;;;;4.85;37.83;96279.47;5090057;28;20267;-78
2022/03/21 01:12:41;;;;;;;38.37;20.33;;;;;;;4.92;37.82;96301.16;5090336;28;20189;-79
2022/03/21 01:15:09;;;;;;;32.33;18.80;;;;;;;4.92;37.65;96287.63;5090916;28;20575;-79
2022/03/21 01:17:36;;;;;;;31.13;18.87;;;;;;;4.91;37.67;96291.88;5091243;28;20194;-79
2022/03/21 01:20:05;;;;;;;32.53;17.03;;;;;;;4.89;37.66;96283.53;5091028;28;20186;-81
2022/03/21 01:22:32;;;;;;;30.20;16.67;;;;;;;4.85;37.42;96278.66;5090625;28;20213;-79
2022/03/21 01:24:59;;;;;;;26.67;13.87;;;;;;;4.93;37.67;96286.75;5091430;28;20188;-78
2022/03/21 01:27:26;;;;;;;29.67;15.60;;;;;;;4.91;37.57;96286.81;5091286;28;20194;-80
2022/03/21 01:29:53;;;;;;;24.73;14.43;;;;;;;4.91;37.28;96275.84;5090942;28;20224;-79
2022/03/21 01:32:20;;;;;;;22.43;13.67;;;;;;;4.91;37.30;96275.84;5090828;28;20194;-79
2022/03/21 01:34:47;;;;;;;22.77;13.83;;;;;;;4.95;37.33;96277.38;5092194;28;20197;-79
2022/03/21 01:37:15;;;;;;;22.53;12.80;;;;;;;4.95;37.45;96275.66;5090055;28;20310;-80
2022/03/21 01:39:42;;;;;;;21.03;12.97;;;;;;;4.96;37.16;96272.22;5090394;28;20652;-80
2022/03/21 01:42:08;;;;;;;20.13;12.87;;;;;;;4.96;37.46;96271.41;5089208;28;20645;-79
2022/03/21 01:44:35;;;;;;;21.00;13.53;;;;;;;4.91;37.40;96260.63;5091082;28;20223;-81
2022/03/21 01:47:02;;;;;;;20.33;12.90;;;;;;;4.93;37.29;96269.84;5090774;28;20189;-77
2022/03/21 01:49:29;;;;;;;21.87;13.07;;;;;;;4.95;37.41;96264.69;5090699;28;20216;-80
2022/03/21 01:51:56;;;;;;;18.63;13.13;;;;;;;4.95;37.78;96268.03;5090290;28;20285;-79
2022/03/21 01:57:11;;;;;;;19.70;12.83;;;;;;;4.94;37.51;96258.78;5090528;28;20803;-79
2022/03/21 01:59:38;;;;;;;21.83;13.10;;;;;;;4.90;37.49;96264.06;5090749;28;20204;-79
2022/03/21 02:02:06;;;;;;;22.33;13.57;;;;;;;4.90;37.53;96261.53;5089017;28;20644;-80
2022/03/21 02:04:33;;;;;;;21.90;14.00;;;;;;;4.94;37.68;96266.41;5089618;28;20287;-78
2022/03/21 02:07:00;;;;;;;21.90;13.07;;;;;;;4.90;37.79;96259.81;5090046;28;20672;-80
2022/03/21 02:09:30;;;;;;;24.27;14.37;;;;;;;4.94;37.68;96266.41;5090244;28;20201;-78
2022/03/21 02:11:58;;;;;;;22.53;14.17;;;;;;;4.90;37.91;96252.22;5090080;28;20185;-81
2022/03/21 02:14:26;;;;;;;28.00;14.53;;;;;;;4.89;37.50;96248.03;5090099;28;20212;-77
2022/03/21 02:16:53;;;;;;;23.30;15.83;;;;;;;4.94;37.65;96266.41;5090236;28;20572;-79
2022/03/21 02:19:25;;;;;;;28.93;16.23;;;;;;;4.94;37.99;96268.13;5089410;28;20194;-78
2022/03/21 02:22:15;;;;;;;25.87;15.20;;;;;;;4.93;38.20;96267.31;5090075;28;20246;-78
2022/03/21 02:24:57;;;;;;;29.03;17.13;;;;;;;4.89;38.11;96272.56;5090419;28;20189;-78
2022/03/21 02:27:27;;;;;;;30.30;16.17;;;;;;;4.82;38.36;96259.31;5088756;28;20185;-79
2022/03/21 02:29:57;;;;;;;34.90;18.17;;;;;;;4.85;38.26;96263.44;5089749;28;20213;-81
2022/03/21 02:32:24;;;;;;;39.57;19.17;;;;;;;4.85;38.34;96265.97;5089679;28;20299;-80
2022/03/21 02:34:51;;;;;;;31.83;17.77;;;;;;;4.83;38.52;96275.34;5090627;28;20193;-81
2022/03/21 02:37:19;;;;;;;29.57;17.83;;;;;;;4.78;38.48;96276.34;5089983;28;20190;-79
2022/03/21 02:39:46;;;;;;;32.23;19.23;;;;;;;4.68;38.63;96264.13;5090869;28;20615;-79
2022/03/21 02:42:14;;;;;;;34.07;19.77;;;;;;;4.61;38.41;96261.00;5090027;28;20200;-78
2022/03/21 02:44:42;;;;;;;34.47;19.50;;;;;;;4.70;38.50;96285.97;5095950;28;20198;-78
2022/03/21 02:47:10;;;;;;;37.87;19.93;;;;;;;4.57;38.60;96267.09;5095609;28;20193;-82
2022/03/21 02:49:38;;;;;;;32.43;17.57;;;;;;;4.66;38.60;96289.53;5091598;28;20252;-78
2022/03/21 02:52:06;;;;;;;36.77;20.57;;;;;;;4.58;38.82;96272.97;5092097;28;20640;-78
2022/03/21 02:54:34;;;;;;;33.10;19.60;;;;;;;4.59;38.71;96278.00;5090176;28;20699;-80
2022/03/21 02:57:02;;;;;;;38.93;20.73;;;;;;;4.56;38.69;96295.03;5089664;28;20197;-79
2022/03/21 02:59:28;;;;;;;36.87;19.73;;;;;;;4.55;38.75;96295.94;5089837;28;20245;-80
2022/03/21 03:01:57;;;;;;;33.10;19.23;;;;;;;4.52;38.95;96284.19;5090090;28;20192;-80
2022/03/21 03:04:24;;;;;;;38.20;20.33;;;;;;;4.47;38.83;96281.03;5088565;28;20268;-80
2022/03/21 03:06:51;;;;;;;38.07;18.77;;;;;;;4.49;38.91;96294.44;5089864;28;20190;-77
2022/03/21 03:09:18;;;;;;;35.43;19.30;;;;;;;4.42;38.88;96285.44;5089470;28;20186;-78
2022/03/21 03:11:45;;;;;;;34.57;19.00;;;;;;;4.42;39.12;96288.81;5089876;28;20182;-77
2022/03/21 03:14:12;;;;;;;33.17;18.83;;;;;;;4.41;39.02;96292.22;5089938;28;20190;-78
2022/03/21 03:16:39;;;;;;;37.40;18.17;;;;;;;4.38;39.03;96294.06;5089461;28;20669;-79
2022/03/21 03:19:08;;;;;;;34.27;19.43;;;;;;;4.32;39.14;96287.53;5089665;28;20219;-80
2022/03/21 03:21:37;;;;;;;34.57;18.17;;;;;;;4.34;38.99;96288.28;5089601;28;20575;-79
2022/03/21 03:24:05;;;;;;;33.90;18.70;;;;;;;4.30;38.89;96291.81;5089276;28;20225;-78
2022/03/21 03:26:32;;;;;;;32.27;18.07;;;;;;;4.30;39.08;96296.06;5090451;28;20197;-77
2022/03/21 03:28:58;;;;;;;31.43;17.40;;;;;;;4.19;39.24;96276.25;5093400;28;20188;-78
2022/03/21 03:31:26;;;;;;;31.30;17.77;;;;;;;4.25;39.32;96298.78;5093614;28;20216;-78
2022/03/21 03:33:53;;;;;;;27.83;16.33;;;;;;;4.24;39.48;96292.06;5092825;28;20684;-77
2022/03/21 03:36:22;;;;;;;27.10;16.27;;;;;;;4.20;39.44;96286.28;5093025;28;20195;-78
2022/03/21 03:38:51;;;;;;;27.77;16.57;;;;;;;4.13;39.29;96277.28;5093384;28;20652;-78
2022/03/21 03:41:19;;;;;;;29.87;16.23;;;;;;;4.13;39.32;96274.75;5093135;28;20660;-80
2022/03/21 03:43:47;;;;;;;28.93;16.67;;;;;;;4.15;39.39;96279.78;5093771;28;20184;-78
2022/03/21 03:46:16;;;;;;;29.17;16.20;;;;;;;4.05;39.40;96265.81;5093005;28;20198;-78
2022/03/21 03:48:43;;;;;;;27.13;15.20;;;;;;;4.13;39.41;96284.06;5093335;28;20281;-79
2022/03/21 03:51:10;;;;;;;26.07;16.63;;;;;;;4.09;39.59;96280.81;5092855;28;20584;-80
2022/03/21 03:53:38;;;;;;;28.37;15.70;;;;;;;4.07;39.55;96280.06;5092941;28;20213;-80
2022/03/21 03:56:06;;;;;;;26.10;14.67;;;;;;;4.04;39.59;96280.16;5092697;28;20189;-79
2022/03/21 03:58:33;;;;;;;28.87;15.40;;;;;;;3.95;39.67;96266.16;5092626;28;20186;-79
2022/03/21 04:01:00;;;;;;;29.90;14.73;;;;;;;3.92;39.74;96268.81;5093199;28;20182;-79
2022/03/21 04:06:12;;;;;;;26.17;14.00;;;;;;;4.00;39.77;96269.34;5092829;28;20271;-80
2022/03/21 04:08:40;;;;;;;27.07;15.50;;;;;;;3.98;39.80;96275.34;5092314;28;20190;-79
2022/03/21 04:11:07;;;;;;;28.80;15.10;;;;;;;3.98;39.68;96267.75;5092565;28;20206;-80
2022/03/21 04:13:33;;;;;;;23.57;15.63;;;;;;;3.96;39.71;96266.97;5093097;28;20194;-83
2022/03/21 04:16:00;;;;;;;21.90;13.80;;;;;;;3.95;39.80;96262.81;5092548;28;20190;-80
2022/03/21 04:18:27;;;;;;;24.07;13.67;;;;;;;3.93;39.94;96262.88;5092488;28;20193;-80
2022/03/21 04:20:54;;;;;;;32.00;15.13;;;;;;;3.90;39.87;96255.41;5091794;28;20196;-79
2022/03/21 04:23:21;;;;;;;26.73;14.60;;;;;;;3.92;39.82;96262.91;5092134;28;20240;-81
2022/03/21 04:25:49;;;;;;;23.00;13.77;;;;;;;3.88;39.89;96248.72;5092349;28;20189;-80
2022/03/21 04:28:16;;;;;;;28.37;14.67;;;;;;;3.95;40.07;96255.22;5092072;28;20222;-80
2022/03/21 04:30:44;;;;;;;23.43;14.43;;;;;;;3.95;39.97;96255.22;5092209;28;20213;-78
2022/03/21 04:33:12;;;;;;;21.87;14.17;;;;;;;3.95;40.40;96263.63;5092278;28;20194;-79
2022/03/21 04:35:39;;;;;;;33.67;17.53;;;;;;;3.96;40.19;96256.84;5092374;28;20215;-80
2022/03/21 04:38:13;;;;;;;24.70;15.37;;;;;;;3.97;40.26;96266.94;5091728;28;20190;-80
2022/03/21 04:40:41;;;;;;;30.93;16.43;;;;;;;4.01;40.25;96262.56;5091704;28;20193;-81
2022/03/21 04:43:09;;;;;;;22.90;15.17;;;;;;;4.02;40.29;96265.06;5091583;28;20217;-78
2022/03/21 04:45:36;;;;;;;27.57;15.77;;;;;;;4.04;40.23;96262.44;5092175;28;20194;-82
2022/03/21 04:48:03;;;;;;;29.33;17.53;;;;;;;4.08;40.35;96258.91;5091816;28;20208;-82
2022/03/21 04:50:30;;;;;;;23.97;14.80;;;;;;;4.02;40.26;96242.28;5091570;28;20220;-81
2022/03/21 04:52:57;;;;;;;32.60;16.90;;;;;;;4.21;40.25;96261.78;5092037;28;20220;-81
2022/03/21 04:55:24;;;;;;;32.13;18.20;;;;;;;4.20;40.19;96260.16;5091590;28;20193;-80
2022/03/21 04:57:51;;;;;;;28.23;16.33;;;;;;;4.32;40.27;96263.91;5092183;28;20215;-81
2022/03/21 05:00:19;;;;;;;28.60;16.87;;;;;;;4.32;40.24;96249.56;5092183;28;20190;-79
2022/03/21 05:02:46;;;;;;;29.03;16.50;;;;;;;4.49;40.09;96269.97;5091775;28;20204;-82
2022/03/21 05:05:13;;;;;;;31.53;17.03;;;;;;;4.59;39.91;96272.94;5092042;28;20197;-80
2022/03/21 05:07:41;;;;;;;32.33;18.07;;;;;;;4.65;40.04;96254.94;5092104;28;20185;-80
2022/03/21 05:10:09;;;;;;;31.63;18.97;;;;;;;4.90;39.93;96264.88;5092347;28;20194;-82
2022/03/21 05:12:37;;;;;;;35.63;17.33;;;;;;;4.98;39.70;96256.97;5091894;28;20181;-80
2022/03/21 05:15:05;;;;;;;29.10;16.80;;;;;;;5.20;39.58;96250.06;5092150;28;20296;-79
2022/03/21 05:17:34;;;;;;;33.00;17.47;;;;;;;5.62;39.20;96260.94;5091489;28;20196;-78
2022/03/21 05:20:01;;;;;;;32.70;19.00;;;;;;;6.04;39.13;96278.47;5091167;28;20273;-80
2022/03/21 05:22:28;;;;;;;24.70;15.70;;;;;;;6.48;38.96;96267.97;5090922;28;20213;-81
2022/03/21 05:36:05;;;;;;;28.53;17.07;;;;;;;9.47;37.35;96286.66;5048343;28;20253;-79
2022/03/21 05:38:32;;;;;;;33.47;16.63;;;;;;;10.07;36.89;96280.47;5048551;28;20191;-82
2022/03/21 05:41:00;;;;;;;25.13;16.97;;;;;;;10.68;36.36;96286.81;5048843;28;20179;-81
2022/03/21 05:43:28;;;;;;;26.23;15.50;;;;;;;11.27;35.59;96279.53;5048560;28;20254;-78
2022/03/21 05:45:55;;;;;;;27.13;15.03;;;;;;;11.94;34.88;96283.56;5048034;28;20187;-82
2022/03/21 05:51:09;;;;;;;25.03;15.67;;;;;;;13.29;33.57;96282.34;5049383;28;20226;-78
2022/03/21 05:53:36;;;;;;;26.17;13.70;;;;;;;13.92;32.46;96277.56;5049174;28;20197;-76
2022/03/21 05:56:03;;;;;;;18.40;11.10;;;;;;;14.57;31.52;96284.44;5048750;28;20574;-75
2022/03/21 05:58:31;;;;;;;16.57;11.10;;;;;;;15.20;30.86;96287.88;5047921;28;20270;-79
2022/03/21 06:00:58;;;;;;;16.73;10.40;;;;;;;15.82;30.00;96280.19;5047466;28;20183;-78
2022/03/21 06:03:26;;;;;;;14.73;9.13;;;;;;;16.42;29.19;96284.41;5047609;28;20637;-76
2022/03/21 06:05:54;;;;;;;13.00;8.97;;;;;;;17.00;28.51;96286.19;5047871;28;20187;-77
2022/03/21 06:08:21;;;;;;;13.50;9.00;;;;;;;17.56;27.82;96288.78;5047928;28;20297;-76
2022/03/21 06:10:48;;;;;;;15.93;8.00;;;;;;;18.12;27.32;96287.06;5078656;28;20221;-75
2022/03/21 06:13:17;;;;;;;10.43;7.90;;;;;;;18.59;26.94;96278.31;5090478;28;20194;-78
2022/03/21 06:15:47;;;;;;;12.57;7.93;;;;;;;19.21;26.15;96299.88;5090661;28;20685;-76
2022/03/21 06:18:14;;;;;;;11.67;7.80;;;;;;;19.73;25.70;96298.16;5090036;28;20194;-74
2022/03/21 06:20:42;;;;;;;11.60;7.30;;;;;;;20.28;25.30;96296.88;5070519;28;20195;-78
2022/03/21 06:23:09;;;;;;;12.27;7.77;;;;;;;20.77;24.70;96299.63;5077067;28;20279;-81
2022/03/21 06:25:37;;;;;;;10.00;7.20;;;;;;;21.20;24.17;96295.88;5090050;28;20190;-80
2022/03/21 06:28:04;;;;;;;8.53;7.30;;;;;;;21.69;23.70;96308.03;5087169;28;20194;-79
2022/03/21 06:30:31;;;;;;;9.57;7.50;;;;;;;22.14;23.41;96299.56;5089955;28;20193;-78
2022/03/21 06:32:58;;;;;;;9.00;6.67;;;;;;;22.59;23.21;96297.22;5089540;28;20280;-77
2022/03/21 06:35:25;;;;;;;8.55;7.30;;;;;;;23.03;22.71;96294.81;5089008;28;20185;-76
2022/03/21 06:37:53;;;;;;;10.55;7.20;;;;;;;23.45;22.46;96304.72;5089069;28;20189;-75
2022/03/21 06:40:23;;;;;;;9.05;6.53;;;;;;;23.86;22.50;96285.19;5087207;28;20624;-74
2022/03/21 06:42:50;;;;;;;9.63;7.43;;;;;;;24.26;22.16;96294.31;5087322;28;20195;-76
2022/03/21 06:45:17;;;;;;;10.18;6.50;;;;;;;24.26;22.26;96297.75;5086883;28;20190;-75
2022/03/21 06:47:44;;;;;;;10.48;6.65;;;;;;;24.33;24.41;96292.59;5084643;28;20197;-78
2022/03/21 06:50:11;;;;;;;8.18;6.35;;;;;;;24.50;24.21;96291.41;5087224;28;20186;-77
2022/03/21 06:52:39;;;;;;;6.60;6.00;;;;;;;24.74;23.92;96297.28;5087629;28;20292;-78
2022/03/21 06:55:10;;;;;;;9.75;6.63;;;;;;;24.91;22.70;96298.66;5084527;28;20189;-80
2022/03/21 06:57:37;;;;;;;9.45;6.05;;;;;;;25.05;23.86;96296.97;5086871;28;20251;-82
2022/03/21 07:00:05;;;;;;;6.93;6.22;;;;;;;25.28;23.26;96310.69;5087209;28;20197;-77
2022/03/21 07:02:32;;;;;;;6.30;5.47;;;;;;;25.45;22.77;96307.78;5091246;28;20173;-79
2022/03/21 07:04:59;;;;;;;11.80;6.95;;;;;;;25.60;21.91;96302.44;5090631;28;20182;-79
2022/03/21 07:07:26;;;;;;;10.50;7.50;;;;;;;25.70;21.46;96302.91;5091133;28;20683;-78
2022/03/21 07:09:53;;;;;;;11.57;6.97;;;;;;;25.77;21.10;96304.59;5091408;28;20198;-75
2022/03/21 07:12:23;;;;;;;9.80;7.55;;;;;;;25.86;20.08;96296.56;5091220;28;20225;-76
2022/03/21 07:14:50;;;;;;;12.68;7.95;;;;;;;25.84;20.44;96288.09;5091499;28;20232;-79
2022/03/21 07:17:19;;;;;;;7.55;6.63;;;;;;;25.91;21.07;96292.38;5091064;28;20656;-73
2022/03/21 07:19:46;;;;;;;11.32;7.40;;;;;;;26.01;21.51;96284.97;5090477;28;20174;-77
2022/03/21 07:22:12;;;;;;;11.25;6.68;;;;;;;26.10;21.91;96284.78;5088875;28;20400;-77
2022/03/21 07:24:39;;;;;;;8.07;6.75;;;;;;;26.19;22.07;96278.38;5091039;28;20326;-74
2022/03/21 07:27:07;;;;;;;7.50;6.80;;;;;;;26.23;21.98;96283.03;5091259;28;20284;-77
2022/03/21 07:29:35;;;;;;;8.63;6.55;;;;;;;26.25;22.43;96275.78;5092166;28;20197;-77
2022/03/21 07:32:02;;;;;;;9.48;6.53;;;;;;;26.36;21.46;96273.59;5090084;28;20452;-74
2022/03/21 07:34:29;;;;;;;12.60;6.30;;;;;;;26.46;22.05;96274.03;5089530;28;20235;-76
2022/03/21 07:36:56;;;;;;;8.95;6.38;;;;;;;26.59;22.18;96286.38;5082506;28;20205;-77
2022/03/21 07:39:23;;;;;;;6.75;5.72;;;;;;;26.67;22.62;96279.13;5087795;28;20193;-75
2022/03/21 07:41:50;;;;;;;6.63;4.97;;;;;;;26.79;22.73;96276.72;5089272;28;20217;-78
2022/03/21 07:47:17;;;;;;;7.78;5.28;;;;;;;26.90;22.69;96275.31;5089914;28;20193;-78
2022/03/21 07:47:23;;;;;;;10.70;6.25;;;;;;;26.96;22.36;96274.53;5089296;28;20200;-76
2022/03/21 07:49:51;;;;;;;6.70;5.25;;;;;;;27.00;22.52;96273.13;5089077;28;20338;-78
2022/03/21 07:52:19;;;;;;;6.93;5.60;;;;;;;27.04;22.71;96269.06;5089551;28;20228;-75
2022/03/21 07:54:46;;;;;;;7.43;5.68;;;;;;;27.08;23.00;96272.91;5089196;28;20254;-76
2022/03/21 07:57:13;;;;;;;6.90;6.20;;;;;;;27.11;22.44;96259.38;5089128;28;20188;-76
2022/03/21 07:59:40;;;;;;;8.70;6.03;;;;;;;27.14;22.42;96255.56;5089513;28;20185;-78
2022/03/21 08:02:08;;;;;;;9.23;6.30;;;;;;;27.14;22.35;96256.38;5090560;28;20195;-75
2022/03/21 08:04:35;;;;;;;6.93;6.20;;;;;;;27.08;22.72;96240.59;5090399;28;20193;-76
2022/03/21 08:07:02;;;;;;;7.28;6.20;;;;;;;27.14;23.22;96259.00;5091249;28;20668;-76
2022/03/21 08:09:29;;;;;;;9.90;7.22;;;;;;;27.12;22.75;96244.47;5091171;28;20181;-76
2022/03/21 08:11:57;;;;;;;6.47;5.78;;;;;;;27.10;22.83;96247.28;5090517;28;20209;-77
2022/03/21 08:14:24;;;;;;;10.65;6.47;;;;;;;27.08;22.82;96251.09;5091873;28;20194;-82
2022/03/21 08:16:51;;;;;;;9.85;7.28;;;;;;;27.01;21.87;96238.75;5091369;28;20197;-78
2022/03/21 08:19:24;;;;;;;8.52;7.38;;;;;;;26.91;21.97;96233.13;5091934;28;20229;-80
2022/03/21 08:21:50;;;;;;;7.18;6.07;;;;;;;26.91;22.15;96250.69;5092175;28;20255;-76
2022/03/21 08:24:17;;;;;;;8.23;7.13;;;;;;;26.87;21.78;96250.28;5091349;28;20229;-79
2022/03/21 08:26:44;;;;;;;12.70;7.63;;;;;;;26.75;20.46;96244.00;5091676;28;20194;-83
2022/03/21 08:29:11;;;;;;;8.05;7.18;;;;;;;26.63;20.41;96243.78;5089495;28;20575;-78
2022/03/21 08:31:38;;;;;;;11.18;8.10;;;;;;;26.54;20.38;96239.75;5092030;28;20222;-77
2022/03/21 08:34:05;;;;;;;10.82;7.80;;;;;;;26.32;20.17;96254.81;5091208;28;20243;-78
2022/03/21 08:36:34;;;;;;;13.77;7.78;;;;;;;26.08;20.69;96243.03;5091286;28;20192;-76
2022/03/21 08:39:02;;;;;;;8.65;7.75;;;;;;;25.78;20.65;96234.66;5090994;28;20243;-75
2022/03/21 08:41:29;;;;;;;9.95;7.32;;;;;;;25.69;21.10;96241.00;5091155;28;20204;-74
2022/03/21 08:43:55;;;;;;;10.00;7.60;;;;;;;25.58;21.19;96239.75;5091225;28;20205;-81
2022/03/21 08:46:22;;;;;;;12.50;8.98;;;;;;;25.43;21.32;96234.63;5091591;28;20193;-76
2022/03/21 08:51:37;;;;;;;12.43;9.13;;;;;;;24.60;20.00;96238.78;5090062;28;20274;-76
2022/03/21 08:54:04;;;;;;;12.82;9.88;;;;;;;24.17;19.64;96233.50;5091196;28;20206;-76
2022/03/21 08:56:31;;;;;;;13.75;10.23;;;;;;;23.69;19.41;96234.94;5089806;28;20580;-76
2022/03/21 08:58:58;;;;;;;13.70;9.82;;;;;;;23.25;19.62;96218.25;5090968;28;20215;-76
2022/03/21 09:01:25;;;;;;;10.95;8.40;;;;;;;22.85;19.72;96229.03;5090428;28;20209;-76
2022/03/21 09:03:53;;;;;;;12.20;8.43;;;;;;;22.49;19.73;96220.00;5095126;28;20235;-78
2022/03/21 09:06:21;;;;;;;18.48;9.90;;;;;;;22.21;19.94;96221.53;5091677;28;20539;-80
2022/03/21 09:08:49;;;;;;;11.85;8.55;;;;;;;21.85;19.71;96218.56;5090101;28;20189;-75
2022/03/21 09:11:18;;;;;;;11.00;8.40;;;;;;;21.48;19.94;96223.44;5090627;28;20189;-76
2022/03/21 09:13:45;;;;;;;9.60;8.00;;;;;;;21.15;20.10;96222.69;5090519;28;20206;-77
2022/03/21 09:16:12;;;;;;;15.93;8.77;;;;;;;20.80;19.84;96209.06;5090288;28;20489;-77
2022/03/21 09:18:39;;;;;;;8.53;7.50;;;;;;;20.43;20.88;96232.13;5089838;28;20688;-75
2022/03/21 09:21:06;;;;;;;9.07;7.43;;;;;;;20.22;22.99;96237.78;5088846;28;20229;-76
2022/03/21 09:23:34;;;;;;;11.20;7.20;;;;;;;20.09;24.60;96221.84;5089537;28;20225;-76
2022/03/21 09:26:03;;;;;;;11.70;7.53;;;;;;;20.12;26.08;96230.13;5090300;28;20676;-76
2022/03/21 09:28:31;;;;;;;8.63;6.70;;;;;;;20.14;26.54;96225.56;5090239;28;20186;-77
2022/03/21 09:30:58;;;;;;;9.53;6.97;;;;;;;20.12;26.62;96237.06;5089934;28;20198;-76
2022/03/21 09:33:27;;;;;;;9.30;6.77;;;;;;;20.04;26.70;96233.50;5090378;28;20263;-76
2022/03/21 09:35:53;;;;;;;13.10;6.80;;;;;;;19.74;26.70;96193.34;5090094;28;20186;-78
2022/03/21 09:38:20;;;;;;;8.57;6.77;;;;;;;19.85;26.43;96220.78;5089773;28;20640;-76
2022/03/21 09:40:47;;;;;;;8.17;6.67;;;;;;;19.81;26.93;96216.88;5088860;28;20227;-75
2022/03/21 09:43:16;;;;;;;11.63;6.00;;;;;;;19.85;27.64;96219.97;5089485;28;20196;-77
2022/03/21 09:45:43;;;;;;;8.30;6.60;;;;;;;19.87;26.76;96212.84;5088234;28;20194;-77
2022/03/21 09:48:16;;;;;;;10.03;6.03;;;;;;;19.87;26.75;96221.44;5087061;28;20197;-76
2022/03/21 09:50:45;;;;;;;6.97;6.20;;;;;;;19.84;26.80;96208.78;5087746;28;20272;-75
2022/03/21 09:53:14;;;;;;;9.60;6.77;;;;;;;19.86;26.93;96204.25;5089783;28;20296;-77
2022/03/21 09:55:41;;;;;;;10.27;6.97;;;;;;;19.91;26.78;96212.38;5088664;28;20182;-77
2022/03/21 09:58:10;;;;;;;9.23;7.23;;;;;;;19.91;26.58;96204.59;5089845;28;20224;-75
2022/03/21 10:00:39;;;;;;;11.37;7.37;;;;;;;19.92;26.63;96208.00;5089285;28;20669;-76
2022/03/21 10:03:07;;;;;;;9.37;6.60;;;;;;;19.93;26.61;96212.19;5089324;28;20189;-78
2022/03/21 10:05:35;;;;;;;10.70;7.30;;;;;;;19.81;26.09;96198.69;5089255;28;20213;-76
2022/03/21 10:08:17;;;;;;;7.63;6.73;;;;;;;19.62;26.30;96204.97;5090001;28;20610;-76
2022/03/21 10:10:55;;;;;;;8.17;6.27;;;;;;;19.55;26.50;96211.72;5086113;28;20599;-77
2022/03/21 10:13:24;;;;;;;8.03;5.90;;;;;;;19.49;26.56;96201.97;5089159;28;20225;-76
2022/03/21 10:16:07;;;;;;;8.00;6.83;;;;;;;19.44;26.37;96202.44;5089057;28;20808;-77
2022/03/21 10:18:33;;;;;;;9.90;7.27;;;;;;;19.39;26.62;96211.66;5089233;28;20208;-77
2022/03/21 10:21:11;;;;;;;8.33;6.50;;;;;;;19.18;26.23;96197.28;5089117;28;20197;-77
2022/03/21 10:23:38;;;;;;;10.07;7.37;;;;;;;18.97;26.64;96187.25;5089178;28;20627;-76
2022/03/21 10:26:23;;;;;;;7.00;6.23;;;;;;;18.92;26.54;96192.09;5088637;28;20675;-77
2022/03/21 10:28:53;;;;;;;7.17;6.33;;;;;;;18.90;27.30;96183.63;5089067;28;20217;-77
2022/03/21 10:31:35;;;;;;;9.93;7.00;;;;;;;18.91;26.69;96198.25;5088861;28;20181;-78
2022/03/21 10:34:03;;;;;;;7.33;6.10;;;;;;;18.88;26.81;96188.19;5089245;28;20193;-77
2022/03/21 10:36:30;;;;;;;10.60;6.70;;;;;;;18.93;26.93;96190.31;5088427;28;20651;-77
2022/03/21 10:39:07;;;;;;;9.00;6.57;;;;;;;18.97;26.96;96184.66;5089032;28;20212;-77
2022/03/21 10:41:36;;;;;;;9.37;7.43;;;;;;;18.99;26.80;96179.31;5086806;28;20197;-75
2022/03/21 10:44:03;;;;;;;8.97;7.00;;;;;;;19.00;26.98;96184.38;5088973;28;20265;-78
2022/03/21 10:46:31;;;;;;;9.53;6.47;;;;;;;18.96;26.92;96177.06;5089088;28;20193;-76
2022/03/21 10:49:02;;;;;;;8.80;6.50;;;;;;;18.83;26.68;96172.28;5088629;28;20190;-78
2022/03/21 10:51:47;;;;;;;11.00;6.43;;;;;;;18.72;27.04;96173.31;5088909;28;20178;-76
2022/03/21 10:54:36;;;;;;;10.50;6.40;;;;;;;18.66;27.07;96170.50;5087305;28;20194;-75
2022/03/21 10:57:03;;;;;;;8.17;6.50;;;;;;;18.54;27.17;96167.34;5087638;28;20579;-76
2022/03/21 10:59:30;;;;;;;9.90;6.40;;;;;;;18.44;27.74;96171.81;5089275;28;20185;-77
2022/03/21 11:02:12;;;;;;;8.10;6.93;;;;;;;18.38;27.03;96168.00;5086717;28;20202;-78
2022/03/21 11:04:42;;;;;;;8.83;6.80;;;;;;;18.24;26.96;96169.34;5086074;28;20694;-77
2022/03/21 11:07:11;;;;;;;10.77;6.60;;;;;;;18.20;27.19;96172.38;5089175;28;20188;-77
2022/03/21 11:09:39;;;;;;;8.17;6.53;;;;;;;18.21;27.22;96161.06;5088431;28;20198;-77
2022/03/21 11:12:08;;;;;;;9.73;6.90;;;;;;;18.25;27.32;96159.81;5088936;28;20354;-78
2022/03/21 11:14:38;;;;;;;13.50;6.30;;;;;;;18.26;27.71;96158.84;5087708;28;20186;-78
2022/03/21 11:17:06;;;;;;;8.47;6.80;;;;;;;18.30;27.28;96149.81;5089076;28;20186;-77
2022/03/21 11:19:34;;;;;;;9.90;6.77;;;;;;;18.35;26.71;96150.19;5088698;28;20218;-77
2022/03/21 11:22:02;;;;;;;8.90;6.50;;;;;;;18.36;26.75;96140.66;5088808;28;20287;-77
2022/03/21 11:24:30;;;;;;;12.27;6.90;;;;;;;18.37;27.07;96140.47;5088298;28;20225;-78
2022/03/21 11:27:03;;;;;;;9.03;7.13;;;;;;;18.44;26.91;96135.53;5087672;28;20194;-78
2022/03/21 11:29:42;;;;;;;7.07;5.77;;;;;;;18.46;26.66;96136.19;5084564;28;20190;-77
2022/03/21 11:32:25;;;;;;;8.43;6.40;;;;;;;18.50;27.03;96127.94;5088712;28;20665;-78
2022/03/21 11:35:03;;;;;;;12.07;6.60;;;;;;;18.54;26.51;96131.88;5087394;28;20182;-76
2022/03/21 11:37:32;;;;;;;8.03;5.93;;;;;;;18.52;26.77;96120.00;5089221;28;20198;-78
2022/03/21 11:40:33;;;;;;;7.67;6.37;;;;;;;18.54;26.58;96110.34;5088915;28;20198;-77
2022/03/21 11:43:26;;;;;;;8.53;6.10;;;;;;;18.52;26.70;96112.25;5088303;28;20223;-77
2022/03/21 11:49:02;;;;;;;8.33;5.47;;;;;;;18.53;27.13;96098.34;5090377;28;20662;-76
2022/03/21 11:51:51;;;;;;;;;;;;;;;;;;;;;
2022/03/21 11:54:31;;;;;;;6.90;5.17;;;;;;;18.52;27.15;96096.69;5091407;28;20727;-76
2022/03/21 11:57:05;;;;;;;6.33;5.73;;;;;;;18.11;27.31;96039.44;5091812;28;20197;-78
2022/03/21 11:59:53;;;;;;;6.97;6.00;;;;;;;18.33;26.91;96069.22;5091793;28;20205;-79
2022/03/21 12:02:55;;;;;;;6.20;5.20;;;;;;;18.37;27.28;96065.38;5091502;28;20204;-79